createdAt,value
2023-05-12T00:01:42.162Z,101495.16
2023-05-12T00:04:09.471Z,101489.78
2023-05-12T00:06:36.850Z,101487.28
2023-05-12T00:09:04.179Z,101492.63
2023-05-12T00:11:31.387Z,101488.97
2023-05-12T00:13:58.502Z,101483.72
2023-05-12T00:16:25.721Z,101483.88
2023-05-12T00:18:53.119Z,101479.44
2023-05-12T00:21:20.394Z,101477.72
2023-05-12T00:23:47.553Z,101471.50
2023-05-12T00:26:14.717Z,101475.91
2023-05-12T00:28:44.200Z,101482.00
2023-05-12T00:31:11.381Z,101478.50
2023-05-12T00:33:38.399Z,101474.91
2023-05-12T00:36:06.152Z,101467.09
2023-05-12T00:38:34.634Z,101465.16
2023-05-12T00:41:01.814Z,101468.88
2023-05-12T00:43:28.875Z,101459.19
2023-05-12T00:45:57.081Z,101452.25
2023-05-12T00:48:24.713Z,101460.75
2023-05-12T00:50:52.148Z,101463.50
2023-05-12T00:53:19.371Z,101454.75
2023-05-12T00:55:46.800Z,101446.94
2023-05-12T00:58:14.660Z,101451.38
2023-05-12T01:00:41.871Z,101450.50
2023-05-12T01:03:09.577Z,101453.16
2023-05-12T01:05:50.547Z,101448.03
2023-05-12T01:08:18.017Z,101440.16
2023-05-12T01:10:46.830Z,101443.50
2023-05-12T01:13:16.545Z,101440.00
2023-05-12T01:15:47.755Z,101443.47
2023-05-12T01:18:16.433Z,101444.28
2023-05-12T01:20:44.888Z,101438.94
2023-05-12T01:23:17.288Z,101438.16
2023-05-12T01:25:49.510Z,101445.16
2023-05-12T01:28:17.628Z,101436.41
2023-05-12T01:30:45.586Z,101439.72
2023-05-12T01:33:13.720Z,101438.91
2023-05-12T01:35:40.957Z,101442.41
2023-05-12T01:38:08.090Z,101439.78
2023-05-12T01:40:38.727Z,101424.06
2023-05-12T01:43:06.247Z,101420.47
2023-05-12T01:45:33.735Z,101428.31
2023-05-12T01:48:01.278Z,101425.69
2023-05-12T01:50:28.606Z,101411.56
2023-05-12T01:52:56.269Z,101422.06
2023-05-12T01:55:23.411Z,101413.38
2023-05-12T01:57:54.387Z,101415.06
2023-05-12T02:03:23.146Z,101415.94
2023-05-12T02:05:51.006Z,101415.06
2023-05-12T02:08:18.211Z,101417.53
2023-05-12T02:10:45.391Z,101418.50
2023-05-12T02:13:12.612Z,101420.13
2023-05-12T02:15:40.463Z,101419.13
2023-05-12T02:18:08.565Z,101408.78
2023-05-12T02:20:36.420Z,101409.28
2023-05-12T02:23:03.843Z,101407.56
2023-05-12T02:25:33.166Z,101402.44
2023-05-12T02:28:00.317Z,101397.38
2023-05-12T02:30:27.880Z,101411.25
2023-05-12T02:32:55.414Z,101399.16
2023-05-12T02:35:22.968Z,101395.66
2023-05-12T02:37:50.256Z,101388.66
2023-05-12T02:40:17.514Z,101390.25
2023-05-12T02:42:45.795Z,101382.53
2023-05-12T02:45:13.346Z,101386.09
2023-05-12T02:47:41.391Z,101386.97
2023-05-12T02:50:09.775Z,101386.09
2023-05-12T02:52:36.915Z,101390.47
2023-05-12T02:55:04.703Z,101388.75
2023-05-12T02:57:34.270Z,101386.91
2023-05-12T03:00:05.022Z,101378.09
2023-05-12T03:02:36.426Z,101388.78
2023-05-12T03:05:04.303Z,101379.97
2023-05-12T03:07:31.611Z,101372.94
2023-05-12T03:09:59.306Z,101376.63
2023-05-12T03:12:26.415Z,101372.25
2023-05-12T03:14:53.496Z,101371.38
2023-05-12T03:17:20.637Z,101371.41
2023-05-12T03:19:49.311Z,101364.47
2023-05-12T03:22:18.175Z,101364.41
2023-05-12T03:24:45.484Z,101357.38
2023-05-12T03:27:12.713Z,101360.09
2023-05-12T03:29:39.784Z,101356.63
2023-05-12T03:32:10.709Z,101356.66
2023-05-12T03:34:38.374Z,101350.59
2023-05-12T03:37:05.579Z,101347.97
2023-05-12T03:39:32.840Z,101347.97
2023-05-12T03:41:59.988Z,101345.25
2023-05-12T03:44:27.234Z,101347.00
2023-05-12T03:46:54.316Z,101348.75
2023-05-12T03:49:21.415Z,101355.75
2023-05-12T03:51:48.432Z,101346.94
2023-05-12T03:54:15.683Z,101351.19
2023-05-12T03:56:42.792Z,101347.72
2023-05-12T03:59:12.138Z,101348.66
2023-05-12T04:01:39.840Z,101346.91
2023-05-12T04:04:07.059Z,101347.78
2023-05-12T04:06:34.584Z,101354.78
2023-05-12T04:09:01.836Z,101346.88
2023-05-12T04:11:29.271Z,101354.75
2023-05-12T04:13:57.050Z,101348.63
2023-05-12T04:16:24.260Z,101355.63
2023-05-12T04:18:52.050Z,101350.31
2023-05-12T04:21:19.066Z,101348.53
2023-05-12T04:23:46.564Z,101345.06
2023-05-12T04:26:13.755Z,101339.84
2023-05-12T04:28:40.983Z,101338.94
2023-05-12T04:31:08.824Z,101344.16
2023-05-12T04:33:37.443Z,101344.94
2023-05-12T04:36:05.930Z,101346.56
2023-05-12T04:38:33.034Z,101347.34
2023-05-12T04:41:01.049Z,101340.28
2023-05-12T04:46:00.152Z,101343.53
2023-05-12T04:48:29.369Z,101336.63
2023-05-12T04:51:00.240Z,101341.91
2023-05-12T04:53:28.237Z,101336.59
2023-05-12T04:55:56.831Z,101341.94
2023-05-12T04:58:26.133Z,101340.22
2023-05-12T05:00:54.025Z,101343.53
2023-05-12T05:03:21.759Z,101343.56
2023-05-12T05:05:49.273Z,101347.00
2023-05-12T05:08:17.041Z,101340.88
2023-05-12T05:10:44.450Z,101346.16
2023-05-12T05:13:11.531Z,101348.75
2023-05-12T05:15:38.870Z,101351.38
2023-05-12T05:18:06.234Z,101353.91
2023-05-12T05:20:34.944Z,101346.19
2023-05-12T05:23:02.405Z,101341.06
2023-05-12T05:25:29.655Z,101347.16
2023-05-12T05:27:56.950Z,101353.25
2023-05-12T05:30:31.293Z,101349.00
2023-05-12T05:32:58.425Z,101358.47
2023-05-12T05:35:25.547Z,101351.63
2023-05-12T05:37:54.735Z,101360.97
2023-05-12T05:40:23.414Z,101362.97
2023-05-12T05:42:51.399Z,101354.28
2023-05-12T05:45:18.811Z,101354.38
2023-05-12T05:47:52.595Z,101356.22
2023-05-12T05:50:21.708Z,101353.69
2023-05-12T05:52:49.980Z,101361.47
2023-05-12T05:55:17.268Z,101358.03
2023-05-12T05:57:44.777Z,101357.19
2023-05-12T06:00:14.426Z,101355.44
2023-05-12T06:02:45.082Z,101354.59
2023-05-12T06:05:17.462Z,101350.25
2023-05-12T06:07:48.291Z,101358.97
2023-05-12T06:10:19.688Z,101355.53
2023-05-12T06:12:47.529Z,101352.91
2023-05-12T06:15:15.115Z,101352.09
2023-05-12T06:17:42.620Z,101356.53
2023-05-12T06:20:10.312Z,101354.84
2023-05-12T06:22:37.449Z,101358.28
2023-05-12T06:25:04.966Z,101361.81
2023-05-12T06:27:32.064Z,101353.91
2023-05-12T06:29:59.261Z,101361.88
2023-05-12T06:32:26.617Z,101360.88
2023-05-12T06:34:53.961Z,101358.38
2023-05-12T06:37:21.181Z,101357.56
2023-05-12T06:39:48.263Z,101360.03
2023-05-12T06:42:16.203Z,101360.88
2023-05-12T06:44:44.394Z,101367.97
2023-05-12T06:47:14.480Z,101365.34
2023-05-12T06:49:41.639Z,101367.16
2023-05-12T06:52:09.080Z,101362.78
2023-05-12T06:54:36.311Z,101367.19
2023-05-12T06:57:03.454Z,101363.81
2023-05-12T06:59:31.131Z,101361.13
2023-05-12T07:01:58.532Z,101357.72
2023-05-12T07:04:27.236Z,101364.69
2023-05-12T07:06:54.404Z,101359.56
2023-05-12T07:09:24.234Z,101369.19
2023-05-12T07:12:05.035Z,101369.97
2023-05-12T07:14:32.444Z,101361.28
2023-05-12T07:16:59.649Z,101364.03
2023-05-12T07:19:27.313Z,101364.97
2023-05-12T07:21:59.132Z,101360.66
2023-05-12T07:24:27.997Z,101354.63
2023-05-12T07:26:55.146Z,101358.13
2023-05-12T07:29:22.769Z,101359.94
2023-05-12T07:31:50.244Z,101355.56
2023-05-12T07:34:17.407Z,101360.00
2023-05-12T07:36:44.718Z,101352.13
2023-05-12T07:39:13.127Z,101365.25
2023-05-12T07:41:40.248Z,101358.25
2023-05-12T07:44:07.653Z,101351.19
2023-05-12T07:46:34.953Z,101357.38
2023-05-12T07:49:02.705Z,101356.50
2023-05-12T07:51:29.904Z,101355.63
2023-05-12T07:53:58.272Z,101367.13
2023-05-12T07:56:25.514Z,101357.47
2023-05-12T07:58:52.716Z,101350.47
2023-05-12T08:01:20.040Z,101354.00
2023-05-12T08:03:47.356Z,101356.59
2023-05-12T08:06:14.809Z,101356.63
2023-05-12T08:08:41.932Z,101353.97
2023-05-12T08:11:09.124Z,101340.88
2023-05-12T08:13:39.561Z,101352.16
2023-05-12T08:16:06.883Z,101349.44
2023-05-12T08:18:34.400Z,101355.63
2023-05-12T08:21:01.621Z,101343.53
2023-05-12T08:23:28.972Z,101346.25
2023-05-12T08:25:56.085Z,101336.59
2023-05-12T08:28:23.265Z,101334.94
2023-05-12T08:30:50.910Z,101336.66
2023-05-12T08:33:18.096Z,101326.03
2023-05-12T08:35:45.405Z,101331.28
2023-05-12T08:38:12.722Z,101326.78
2023-05-12T08:40:58.421Z,101327.63
2023-05-12T08:43:31.463Z,101321.91
2023-05-12T08:45:59.533Z,101323.94
2023-05-12T08:48:28.289Z,101319.34
2023-05-12T08:50:57.238Z,101323.03
2023-05-12T08:53:26.178Z,101321.38
2023-05-12T08:57:10.035Z,101323.44
2023-05-12T08:58:43.283Z,101319.69
2023-05-12T09:01:14.411Z,101313.44
2023-05-12T09:03:42.242Z,101317.59
2023-05-12T09:06:12.687Z,101320.22
2023-05-12T09:08:41.227Z,101314.03
2023-05-12T09:11:13.411Z,101322.16
2023-05-12T09:14:00.562Z,101322.91
2023-05-12T09:16:31.770Z,101314.91
2023-05-12T09:19:00.520Z,101324.78
2023-05-12T09:21:28.783Z,101323.22
2023-05-12T09:24:07.233Z,101326.53
2023-05-12T09:26:51.591Z,101331.88
2023-05-12T09:29:30.889Z,101332.75
2023-05-12T09:32:02.521Z,101329.31
2023-05-12T09:34:33.307Z,101328.47
2023-05-12T09:37:02.569Z,101332.00
2023-05-12T09:39:29.897Z,101336.66
2023-05-12T09:41:57.587Z,101339.31
2023-05-12T09:44:25.939Z,101337.50
2023-05-12T09:46:53.273Z,101335.78
2023-05-12T09:49:26.960Z,101334.06
2023-05-12T09:51:57.006Z,101334.91
2023-05-12T09:54:31.542Z,101339.25
2023-05-12T09:57:05.060Z,101334.06
2023-05-12T09:59:39.326Z,101338.41
2023-05-12T10:02:09.881Z,101335.75
2023-05-12T10:05:01.312Z,101338.38
2023-05-12T10:07:29.869Z,101341.06
2023-05-12T10:10:01.559Z,101348.97
2023-05-12T10:12:29.091Z,101334.06
2023-05-12T10:14:57.142Z,101332.28
2023-05-12T10:17:26.970Z,101334.91
2023-05-12T10:19:56.037Z,101328.78
2023-05-12T10:22:23.643Z,101334.03
2023-05-12T10:24:52.448Z,101334.94
2023-05-12T10:27:22.362Z,101337.53
2023-05-12T10:29:51.521Z,101341.06
2023-05-12T10:32:20.909Z,101335.78
2023-05-12T10:34:48.386Z,101344.59
2023-05-12T10:37:15.606Z,101341.88
2023-05-12T10:39:51.745Z,101347.09
2023-05-12T10:42:26.132Z,101338.31
2023-05-12T10:44:58.433Z,101338.38
2023-05-12T10:47:30.932Z,101332.19
2023-05-12T10:50:01.548Z,101329.63
2023-05-12T10:52:29.466Z,101332.25
2023-05-12T10:55:04.324Z,101325.25
2023-05-12T10:57:33.604Z,101333.13
2023-05-12T11:00:05.052Z,101327.88
2023-05-12T11:02:35.906Z,101317.38
2023-05-12T11:05:11.098Z,101327.94
2023-05-12T11:07:39.818Z,101318.28
2023-05-12T11:10:08.147Z,101323.38
2023-05-12T11:12:36.694Z,101319.13
2023-05-12T11:15:05.782Z,101320.84
2023-05-12T11:17:33.445Z,101312.09
2023-05-12T11:20:03.411Z,101295.44
2023-05-12T11:22:30.636Z,101316.47
2023-05-12T11:24:57.921Z,101301.50
2023-05-12T11:27:25.254Z,101265.63
2023-05-12T11:30:01.069Z,101292.81
2023-05-12T11:32:29.853Z,101302.47
2023-05-12T11:35:12.052Z,101302.41
2023-05-12T11:37:41.183Z,101291.94
2023-05-12T11:40:23.214Z,101313.78
2023-05-12T11:42:53.161Z,101285.81
2023-05-12T11:45:27.149Z,101301.53
2023-05-12T11:48:07.359Z,101267.41
2023-05-12T11:50:37.277Z,101289.28
2023-05-12T11:53:07.377Z,101267.34
2023-05-12T11:55:34.944Z,101273.47
2023-05-12T11:58:03.887Z,101270.00
2023-05-12T12:00:35.827Z,101283.09
2023-05-12T12:03:12.919Z,101275.59
2023-05-12T12:05:42.402Z,101288.06
2023-05-12T12:08:15.740Z,101281.91
2023-05-12T12:10:47.022Z,101289.84
2023-05-12T12:13:21.314Z,101286.28
2023-05-12T12:15:49.453Z,101293.31
2023-05-12T12:18:16.853Z,101301.34
2023-05-12T12:20:44.346Z,101306.53
2023-05-12T12:23:11.450Z,101304.69
2023-05-12T12:25:38.813Z,101301.25
2023-05-12T12:28:06.153Z,101315.13
2023-05-12T12:30:36.886Z,101313.28
2023-05-12T12:33:04.217Z,101326.28
2023-05-12T12:35:31.506Z,101307.19
2023-05-12T12:38:02.023Z,101304.28
2023-05-12T12:40:29.478Z,101294.97
2023-05-12T12:42:56.723Z,101295.91
2023-05-12T12:45:24.137Z,101293.34
2023-05-12T12:47:55.613Z,101294.09
2023-05-12T12:50:24.471Z,101295.03
2023-05-12T12:52:53.108Z,101298.31
2023-05-12T12:55:20.930Z,101289.31
2023-05-12T12:57:48.660Z,101293.88
2023-05-12T13:00:16.310Z,101308.72
2023-05-12T13:02:44.988Z,101309.91
2023-05-12T13:05:15.338Z,101310.38
2023-05-12T13:07:42.630Z,101299.19
2023-05-12T13:10:10.565Z,101294.44
2023-05-12T13:12:40.551Z,101287.31
2023-05-12T13:15:12.633Z,101284.78
2023-05-12T13:17:43.621Z,101284.09
2023-05-12T13:20:11.563Z,101282.50
2023-05-12T13:22:41.119Z,101282.22
2023-05-12T13:25:21.658Z,101291.28
2023-05-12T13:27:52.655Z,101295.50
2023-05-12T13:30:20.851Z,101292.81
2023-05-12T13:32:48.666Z,101295.63
2023-05-12T13:35:16.509Z,101300.94
2023-05-12T13:37:43.914Z,101305.47
2023-05-12T13:40:14.573Z,101322.09
2023-05-12T13:42:45.346Z,101322.13
2023-05-12T13:45:14.898Z,101330.88
2023-05-12T13:47:42.655Z,101331.56
2023-05-12T13:50:14.192Z,101335.06
2023-05-12T13:52:44.923Z,101334.31
2023-05-12T13:55:21.007Z,101326.41
2023-05-12T13:57:52.901Z,101325.75
2023-05-12T14:00:23.591Z,101315.19
2023-05-12T14:02:50.776Z,101313.41
2023-05-12T14:05:21.196Z,101317.00
2023-05-12T14:07:49.194Z,101313.47
2023-05-12T14:10:19.530Z,101316.16
2023-05-12T14:12:54.617Z,101321.38
2023-05-12T14:15:32.986Z,101312.56
2023-05-12T14:18:04.029Z,101315.28
2023-05-12T14:20:31.612Z,101321.44
2023-05-12T14:22:58.722Z,101322.25
2023-05-12T14:25:25.989Z,101325.84
2023-05-12T14:27:53.480Z,101319.66
2023-05-12T14:30:21.982Z,101330.28
2023-05-12T14:32:50.091Z,101330.22
2023-05-12T14:35:29.160Z,101328.34
2023-05-12T14:37:56.985Z,101334.50
2023-05-12T14:40:24.581Z,101333.44
2023-05-12T14:42:52.646Z,101344.16
2023-05-12T14:45:22.334Z,101352.94
2023-05-12T14:47:50.515Z,101376.63
2023-05-12T14:50:21.722Z,101395.84
2023-05-12T14:52:49.444Z,101425.34
2023-05-12T14:55:17.668Z,101457.59
2023-05-12T14:57:45.720Z,101465.50
2023-05-12T15:00:15.344Z,101461.03
2023-05-12T15:02:44.425Z,101471.25
2023-05-12T15:05:14.128Z,101475.94
2023-05-12T15:07:41.663Z,101471.56
2023-05-12T15:10:09.520Z,101460.34
2023-05-12T15:12:36.865Z,101450.81
2023-05-12T15:15:05.591Z,101441.88
2023-05-12T15:17:33.167Z,101446.28
2023-05-12T15:20:01.314Z,101441.94
2023-05-12T15:22:31.603Z,101442.09
2023-05-12T15:24:59.742Z,101443.09
2023-05-12T15:27:27.487Z,101453.75
2023-05-12T15:29:57.516Z,101453.91
2023-05-12T15:32:25.008Z,101448.75
2023-05-12T15:34:52.901Z,101438.44
2023-05-12T15:37:19.934Z,101435.78
2023-05-12T15:39:47.640Z,101429.66
2023-05-12T15:42:22.239Z,101429.59
2023-05-12T15:44:56.723Z,101434.50
2023-05-12T15:47:26.305Z,101438.31
2023-05-12T15:49:57.217Z,101442.59
2023-05-12T15:52:25.028Z,101441.16
2023-05-12T15:54:54.682Z,101447.31
2023-05-12T15:57:22.190Z,101441.22
2023-05-12T15:59:50.190Z,101446.47
2023-05-12T16:02:18.797Z,101454.41
2023-05-12T16:04:46.049Z,101450.84
2023-05-12T16:07:13.078Z,101442.13
2023-05-12T16:09:40.404Z,101447.50
2023-05-12T16:12:09.307Z,101447.41
2023-05-12T16:14:36.461Z,101450.16
2023-05-12T16:17:04.123Z,101445.88
2023-05-12T16:19:31.639Z,101449.63
2023-05-12T16:22:02.275Z,101440.97
2023-05-12T16:24:31.811Z,101430.34
2023-05-12T16:27:01.892Z,101420.94
2023-05-12T16:29:31.922Z,101406.94
2023-05-12T16:31:59.512Z,101406.03
2023-05-12T16:34:29.607Z,101400.91
2023-05-12T16:36:56.778Z,101401.88
2023-05-12T16:39:23.936Z,101385.28
2023-05-12T16:41:51.462Z,101366.03
2023-05-12T16:44:18.590Z,101355.34
2023-05-12T16:46:45.814Z,101363.47
2023-05-12T16:49:13.173Z,101365.34
2023-05-12T16:51:40.658Z,101353.31
2023-05-12T16:54:07.954Z,101356.91
2023-05-12T16:56:35.347Z,101350.41
2023-05-12T16:59:02.873Z,101351.38
2023-05-12T17:01:31.858Z,101357.69
2023-05-12T17:04:01.500Z,101352.53
2023-05-12T17:06:28.755Z,101360.38
2023-05-12T17:08:55.953Z,101346.50
2023-05-12T17:11:24.984Z,101349.25
2023-05-12T17:13:56.162Z,101341.41
2023-05-12T17:16:29.114Z,101329.03
2023-05-12T17:21:40.752Z,101333.63
2023-05-12T17:24:14.466Z,101343.31
2023-05-12T17:26:45.311Z,101336.31
2023-05-12T17:29:15.616Z,101338.94
2023-05-12T17:31:43.370Z,101340.69
2023-05-12T17:34:13.718Z,101337.13
2023-05-12T17:36:41.280Z,101332.84
2023-05-12T17:39:19.793Z,101342.56
2023-05-12T17:41:47.465Z,101340.78
2023-05-12T17:44:14.879Z,101339.88
2023-05-12T17:46:42.173Z,101351.09
2023-05-12T17:49:14.402Z,101365.91
2023-05-12T17:51:44.908Z,101364.59
2023-05-12T17:54:15.627Z,101356.50
2023-05-12T17:56:44.807Z,101360.03
2023-05-12T17:59:12.681Z,101352.91
2023-05-12T18:01:39.988Z,101352.03
2023-05-12T18:04:10.344Z,101357.09
2023-05-12T18:06:41.382Z,101353.25
2023-05-12T18:09:09.623Z,101357.06
2023-05-12T18:11:37.322Z,101363.69
2023-05-12T18:14:06.278Z,101357.72
2023-05-12T18:16:35.887Z,101355.97
2023-05-12T18:19:04.148Z,101365.50
2023-05-12T18:21:31.376Z,101369.44
2023-05-12T18:24:01.908Z,101370.53
2023-05-12T18:26:30.813Z,101368.13
2023-05-12T18:28:58.420Z,101371.59
2023-05-12T18:31:26.955Z,101379.13
2023-05-12T18:33:54.118Z,101385.31
2023-05-12T18:36:22.038Z,101394.06
2023-05-12T18:38:49.254Z,101398.34
2023-05-12T18:41:17.133Z,101406.13
2023-05-12T18:43:45.402Z,101410.69
2023-05-12T18:46:12.893Z,101405.50
2023-05-12T18:48:51.247Z,101416.00
2023-05-12T18:51:20.742Z,101416.13
2023-05-12T18:53:48.417Z,101417.75
2023-05-12T18:56:16.030Z,101418.59
2023-05-12T18:58:43.082Z,101418.59
2023-05-12T19:01:10.703Z,101428.16
2023-05-12T19:03:38.201Z,101419.22
2023-05-12T19:06:07.376Z,101418.56
2023-05-12T19:08:34.490Z,101422.06
2023-05-12T19:11:01.633Z,101426.44
2023-05-12T19:13:28.748Z,101430.06
2023-05-12T19:15:55.795Z,101436.22
2023-05-12T19:18:23.679Z,101431.00
2023-05-12T19:20:52.596Z,101433.50
2023-05-12T19:23:24.615Z,101436.22
2023-05-12T19:25:52.064Z,101441.44
2023-05-12T19:28:19.146Z,101450.19
2023-05-12T19:30:46.399Z,101451.94
2023-05-12T19:33:15.295Z,101457.34
2023-05-12T19:35:43.839Z,101451.19
2023-05-12T19:38:13.730Z,101452.09
2023-05-12T19:40:40.846Z,101446.88
2023-05-12T19:43:10.775Z,101446.88
2023-05-12T19:45:38.127Z,101445.16
2023-05-12T19:48:05.782Z,101449.53
2023-05-12T19:50:34.463Z,101451.25
2023-05-12T19:53:01.905Z,101446.06
2023-05-12T19:55:33.081Z,101440.81
2023-05-12T19:58:02.272Z,101449.50
2023-05-12T20:00:29.736Z,101450.25
2023-05-12T20:02:59.988Z,101452.84
2023-05-12T20:05:31.417Z,101455.44
2023-05-12T20:08:01.497Z,101461.59
2023-05-12T20:10:30.121Z,101467.50
2023-05-12T20:13:03.942Z,101467.59
2023-05-12T20:15:32.490Z,101468.44
2023-05-12T20:18:01.425Z,101471.97
2023-05-12T20:20:50.061Z,101484.06
2023-05-12T20:23:17.838Z,101485.09
2023-05-12T20:25:46.504Z,101495.56
2023-05-12T20:28:14.455Z,101496.41
2023-05-12T20:31:03.739Z,101492.88
2023-05-12T20:33:41.164Z,101497.19
2023-05-12T20:36:11.222Z,101498.19
2023-05-12T20:38:56.620Z,101495.66
2023-05-12T20:41:28.581Z,101499.97
2023-05-12T20:43:57.176Z,101490.47
2023-05-12T20:46:31.823Z,101494.78
2023-05-12T20:49:09.552Z,101493.03
2023-05-12T20:51:40.765Z,101500.94
2023-05-12T20:54:15.099Z,101493.91
2023-05-12T20:56:45.736Z,101501.78
2023-05-12T20:59:14.305Z,101507.81
2023-05-12T21:01:51.374Z,101508.63
2023-05-12T21:04:25.999Z,101516.50
2023-05-12T21:07:15.187Z,101515.59
2023-05-12T21:10:11.166Z,101512.94
2023-05-12T21:12:51.202Z,101514.56
2023-05-12T21:15:19.755Z,101515.44
2023-05-12T21:17:47.380Z,101506.69
2023-05-12T21:20:20.149Z,101510.16
2023-05-12T21:22:59.133Z,101515.31
2023-05-12T21:25:37.502Z,101518.03
2023-05-12T21:28:08.020Z,101521.47
2023-05-12T21:30:44.889Z,101530.22
2023-05-12T21:33:18.198Z,101526.63
2023-05-12T21:37:15.967Z,101528.28
2023-05-12T21:39:44.089Z,101529.97
2023-05-12T21:42:11.386Z,101530.81
2023-05-12T21:44:41.341Z,101528.19
2023-05-12T21:47:09.737Z,101529.91
2023-05-12T21:49:37.101Z,101533.38
2023-05-12T21:52:04.592Z,101536.91
2023-05-12T21:54:34.220Z,101531.69
2023-05-12T21:57:01.705Z,101519.44
2023-05-12T21:59:29.636Z,101516.81
2023-05-12T22:01:57.570Z,101515.09
2023-05-12T22:04:24.865Z,101513.34
2023-05-12T22:06:58.209Z,101515.88
2023-05-12T22:09:31.752Z,101519.44
2023-05-12T22:11:59.070Z,101516.78
2023-05-12T22:14:26.168Z,101520.31
2023-05-12T22:16:53.422Z,101520.31
2023-05-12T22:19:24.435Z,101516.81
2023-05-12T22:24:49.297Z,101527.19
2023-05-12T22:27:36.594Z,101525.50
2023-05-12T22:30:24.171Z,101527.28
2023-05-12T22:33:04.448Z,101530.75
2023-05-12T22:35:35.072Z,101530.75
2023-05-12T22:38:07.951Z,101538.47
2023-05-12T22:40:39.974Z,101529.91
2023-05-12T22:43:25.112Z,101539.47
2023-05-12T22:46:11.401Z,101540.25
2023-05-12T22:48:58.713Z,101532.47
2023-05-12T22:51:29.629Z,101543.84
2023-05-12T22:54:07.939Z,101538.59
2023-05-12T22:56:45.766Z,101535.16
2023-05-12T22:59:20.579Z,101536.88
2023-05-12T23:02:37.896Z,101545.59
2023-05-12T23:05:28.127Z,101538.66
2023-05-12T23:08:13.288Z,101541.28
2023-05-12T23:10:46.337Z,101537.53
2023-05-12T23:14:36.378Z,101536.75
2023-05-12T23:17:08.342Z,101534.94
2023-05-12T23:19:37.321Z,101529.56
2023-05-12T23:22:08.165Z,101520.75
2023-05-12T23:24:39.372Z,101527.69
2023-05-12T23:27:09.544Z,101523.97
2023-05-12T23:29:43.247Z,101531.84
2023-05-12T23:32:14.567Z,101518.75
2023-05-12T23:34:45.453Z,101516.13
2023-05-12T23:37:13.209Z,101508.09
2023-05-12T23:39:57.223Z,101504.75
2023-05-12T23:42:25.009Z,101508.13
2023-05-12T23:44:55.898Z,101509.66
2023-05-12T23:47:30.455Z,101513.41
2023-05-12T23:50:05.812Z,101509.81
2023-05-12T23:52:37.755Z,101508.88
2023-05-12T23:55:07.992Z,101504.59
2023-05-12T23:57:40.914Z,101503.75
